sensor_id;sensor_type;location;lat;lon;timestamp;temperature;humidity
52725;DHT22;38621;52.830;6.914;2023-07-31T00:01:46;14.90;99.90
52725;DHT22;38621;52.830;6.914;2023-07-31T00:04:12;14.80;99.90
52725;DHT22;38621;52.830;6.914;2023-07-31T00:06:37;14.80;99.90
52725;DHT22;38621;52.830;6.914;2023-07-31T00:09:03;14.80;99.90
52725;DHT22;38621;52.830;6.914;2023-07-31T00:11:29;14.80;99.90
52725;DHT22;38621;52.830;6.914;2023-07-31T00:13:54;14.80;99.90
52725;DHT22;38621;52.830;6.914;2023-07-31T00:16:20;14.80;99.90
52725;DHT22;38621;52.830;6.914;2023-07-31T00:18:46;14.80;99.90
52725;DHT22;38621;52.830;6.914;2023-07-31T00:21:11;14.80;99.90
52725;DHT22;38621;52.830;6.914;2023-07-31T00:23:37;14.80;99.90
52725;DHT22;38621;52.830;6.914;2023-07-31T00:26:02;14.80;99.90
52725;DHT22;38621;52.830;6.914;2023-07-31T00:28:28;14.80;99.90
52725;DHT22;38621;52.830;6.914;2023-07-31T00:30:54;14.80;99.90
52725;DHT22;38621;52.830;6.914;2023-07-31T00:33:20;14.80;99.90
52725;DHT22;38621;52.830;6.914;2023-07-31T00:35:45;14.80;99.90
52725;DHT22;38621;52.830;6.914;2023-07-31T00:38:11;14.80;99.90
52725;DHT22;38621;52.830;6.914;2023-07-31T00:40:37;14.80;99.90
52725;DHT22;38621;52.830;6.914;2023-07-31T00:43:03;14.90;99.90
52725;DHT22;38621;52.830;6.914;2023-07-31T00:45:29;14.90;99.90
52725;DHT22;38621;52.830;6.914;2023-07-31T00:47:55;14.90;99.90
52725;DHT22;38621;52.830;6.914;2023-07-31T00:50:24;14.90;99.90
52725;DHT22;38621;52.830;6.914;2023-07-31T00:52:50;14.90;99.90
52725;DHT22;38621;52.830;6.914;2023-07-31T00:55:16;14.90;99.90
52725;DHT22;38621;52.830;6.914;2023-07-31T00:57:42;14.90;99.90
52725;DHT22;38621;52.830;6.914;2023-07-31T01:00:08;14.80;99.90
52725;DHT22;38621;52.830;6.914;2023-07-31T01:02:35;14.80;99.90
52725;DHT22;38621;52.830;6.914;2023-07-31T01:05:02;14.80;99.90
52725;DHT22;38621;52.830;6.914;2023-07-31T01:07:49;14.80;99.90
52725;DHT22;38621;52.830;6.914;2023-07-31T01:10:21;14.80;99.90
52725;DHT22;38621;52.830;6.914;2023-07-31T01:12:50;14.80;99.90
52725;DHT22;38621;52.830;6.914;2023-07-31T01:15:17;14.80;99.90
52725;DHT22;38621;52.830;6.914;2023-07-31T01:17:43;14.80;99.90
52725;DHT22;38621;52.830;6.914;2023-07-31T01:20:13;14.80;99.90
52725;DHT22;38621;52.830;6.914;2023-07-31T01:25:46;14.70;99.90
52725;DHT22;38621;52.830;6.914;2023-07-31T01:28:20;14.70;99.90
52725;DHT22;38621;52.830;6.914;2023-07-31T01:30:48;14.60;99.90
52725;DHT22;38621;52.830;6.914;2023-07-31T01:33:15;14.60;99.90
52725;DHT22;38621;52.830;6.914;2023-07-31T01:35:44;14.60;99.90
52725;DHT22;38621;52.830;6.914;2023-07-31T01:38:10;14.60;99.90
52725;DHT22;38621;52.830;6.914;2023-07-31T01:40:36;14.60;99.90
52725;DHT22;38621;52.830;6.914;2023-07-31T01:43:01;14.60;99.90
52725;DHT22;38621;52.830;6.914;2023-07-31T01:45:27;14.60;99.90
52725;DHT22;38621;52.830;6.914;2023-07-31T01:47:53;14.60;99.90
52725;DHT22;38621;52.830;6.914;2023-07-31T01:50:18;14.60;99.90
52725;DHT22;38621;52.830;6.914;2023-07-31T01:52:44;14.60;99.90
52725;DHT22;38621;52.830;6.914;2023-07-31T01:55:10;14.60;99.90
52725;DHT22;38621;52.830;6.914;2023-07-31T01:57:36;14.50;99.90
52725;DHT22;38621;52.830;6.914;2023-07-31T02:00:03;14.60;99.90
52725;DHT22;38621;52.830;6.914;2023-07-31T02:02:29;14.60;99.90
52725;DHT22;38621;52.830;6.914;2023-07-31T02:04:54;14.60;99.90
52725;DHT22;38621;52.830;6.914;2023-07-31T02:07:20;14.60;99.90
52725;DHT22;38621;52.830;6.914;2023-07-31T02:09:46;14.60;99.90
52725;DHT22;38621;52.830;6.914;2023-07-31T02:12:13;14.60;99.90
52725;DHT22;38621;52.830;6.914;2023-07-31T02:14:40;14.70;99.90
52725;DHT22;38621;52.830;6.914;2023-07-31T02:17:06;14.70;99.90
52725;DHT22;38621;52.830;6.914;2023-07-31T02:19:32;14.70;99.90
52725;DHT22;38621;52.830;6.914;2023-07-31T02:21:57;14.70;99.90
52725;DHT22;38621;52.830;6.914;2023-07-31T02:24:24;14.70;99.90
52725;DHT22;38621;52.830;6.914;2023-07-31T02:26:50;14.70;99.90
52725;DHT22;38621;52.830;6.914;2023-07-31T02:29:15;14.80;99.90
52725;DHT22;38621;52.830;6.914;2023-07-31T02:31:41;14.80;99.90
52725;DHT22;38621;52.830;6.914;2023-07-31T02:34:07;14.70;99.90
52725;DHT22;38621;52.830;6.914;2023-07-31T02:36:32;14.80;99.90
52725;DHT22;38621;52.830;6.914;2023-07-31T02:38:58;14.80;99.90
52725;DHT22;38621;52.830;6.914;2023-07-31T02:41:24;14.80;99.90
52725;DHT22;38621;52.830;6.914;2023-07-31T02:43:49;14.80;99.90
52725;DHT22;38621;52.830;6.914;2023-07-31T02:46:15;14.80;99.90
52725;DHT22;38621;52.830;6.914;2023-07-31T02:48:41;14.80;99.90
52725;DHT22;38621;52.830;6.914;2023-07-31T02:51:06;14.80;99.90
52725;DHT22;38621;52.830;6.914;2023-07-31T02:53:32;14.80;99.90
52725;DHT22;38621;52.830;6.914;2023-07-31T02:55:57;14.90;99.90
52725;DHT22;38621;52.830;6.914;2023-07-31T02:58:23;14.90;99.90
52725;DHT22;38621;52.830;6.914;2023-07-31T03:00:49;14.90;99.90
52725;DHT22;38621;52.830;6.914;2023-07-31T03:03:14;14.90;99.90
52725;DHT22;38621;52.830;6.914;2023-07-31T03:05:40;15.00;99.90
52725;DHT22;38621;52.830;6.914;2023-07-31T03:08:06;15.00;99.90
52725;DHT22;38621;52.830;6.914;2023-07-31T03:10:31;15.00;99.90
52725;DHT22;38621;52.830;6.914;2023-07-31T03:12:57;15.00;99.90
52725;DHT22;38621;52.830;6.914;2023-07-31T03:15:23;15.00;99.90
52725;DHT22;38621;52.830;6.914;2023-07-31T03:17:48;15.00;99.90
52725;DHT22;38621;52.830;6.914;2023-07-31T03:20:14;15.10;99.90
52725;DHT22;38621;52.830;6.914;2023-07-31T03:22:40;15.00;99.90
52725;DHT22;38621;52.830;6.914;2023-07-31T03:25:06;15.10;99.90
52725;DHT22;38621;52.830;6.914;2023-07-31T03:27:31;15.10;99.90
52725;DHT22;38621;52.830;6.914;2023-07-31T03:29:57;15.10;99.90
52725;DHT22;38621;52.830;6.914;2023-07-31T03:32:23;15.10;99.90
52725;DHT22;38621;52.830;6.914;2023-07-31T03:34:49;15.10;99.90
52725;DHT22;38621;52.830;6.914;2023-07-31T03:37:15;15.10;99.90
52725;DHT22;38621;52.830;6.914;2023-07-31T03:39:40;15.20;99.90
52725;DHT22;38621;52.830;6.914;2023-07-31T03:42:06;15.10;99.90
52725;DHT22;38621;52.830;6.914;2023-07-31T03:44:32;15.20;99.90
52725;DHT22;38621;52.830;6.914;2023-07-31T03:46:58;15.10;99.90
52725;DHT22;38621;52.830;6.914;2023-07-31T03:49:23;15.20;99.90
52725;DHT22;38621;52.830;6.914;2023-07-31T03:51:50;15.20;99.90
52725;DHT22;38621;52.830;6.914;2023-07-31T03:54:15;15.20;99.90
52725;DHT22;38621;52.830;6.914;2023-07-31T03:56:41;15.20;99.90
52725;DHT22;38621;52.830;6.914;2023-07-31T03:59:07;15.20;99.90
52725;DHT22;38621;52.830;6.914;2023-07-31T04:01:33;15.30;99.90
52725;DHT22;38621;52.830;6.914;2023-07-31T04:03:58;15.30;99.90
52725;DHT22;38621;52.830;6.914;2023-07-31T04:06:24;15.30;99.90
52725;DHT22;38621;52.830;6.914;2023-07-31T04:08:49;15.40;99.90
52725;DHT22;38621;52.830;6.914;2023-07-31T04:11:15;15.40;99.90
52725;DHT22;38621;52.830;6.914;2023-07-31T04:13:41;15.40;99.90
52725;DHT22;38621;52.830;6.914;2023-07-31T04:16:06;15.50;99.90
52725;DHT22;38621;52.830;6.914;2023-07-31T04:18:32;15.50;99.90
52725;DHT22;38621;52.830;6.914;2023-07-31T04:20:58;15.50;99.90
52725;DHT22;38621;52.830;6.914;2023-07-31T04:23:27;15.50;99.90
52725;DHT22;38621;52.830;6.914;2023-07-31T04:25:52;15.50;99.90
52725;DHT22;38621;52.830;6.914;2023-07-31T04:28:18;15.60;99.90
52725;DHT22;38621;52.830;6.914;2023-07-31T04:30:44;15.60;99.90
52725;DHT22;38621;52.830;6.914;2023-07-31T04:33:09;15.50;99.90
52725;DHT22;38621;52.830;6.914;2023-07-31T04:35:35;15.50;99.90
52725;DHT22;38621;52.830;6.914;2023-07-31T04:38:01;15.50;99.90
52725;DHT22;38621;52.830;6.914;2023-07-31T04:40:26;15.50;99.90
52725;DHT22;38621;52.830;6.914;2023-07-31T04:42:52;15.50;99.90
52725;DHT22;38621;52.830;6.914;2023-07-31T04:45:18;15.50;99.90
52725;DHT22;38621;52.830;6.914;2023-07-31T04:47:43;15.50;99.90
52725;DHT22;38621;52.830;6.914;2023-07-31T04:50:09;15.50;99.90
52725;DHT22;38621;52.830;6.914;2023-07-31T04:52:35;15.50;99.90
52725;DHT22;38621;52.830;6.914;2023-07-31T04:55:01;15.50;99.90
52725;DHT22;38621;52.830;6.914;2023-07-31T04:57:26;15.50;99.90
52725;DHT22;38621;52.830;6.914;2023-07-31T04:59:52;15.50;99.90
52725;DHT22;38621;52.830;6.914;2023-07-31T05:02:17;15.50;99.90
52725;DHT22;38621;52.830;6.914;2023-07-31T05:04:43;15.60;99.90
52725;DHT22;38621;52.830;6.914;2023-07-31T05:07:09;15.60;99.90
52725;DHT22;38621;52.830;6.914;2023-07-31T05:09:34;15.60;99.90
52725;DHT22;38621;52.830;6.914;2023-07-31T05:12:00;15.60;99.90
52725;DHT22;38621;52.830;6.914;2023-07-31T05:14:26;15.60;99.90
52725;DHT22;38621;52.830;6.914;2023-07-31T05:16:52;15.60;99.90
52725;DHT22;38621;52.830;6.914;2023-07-31T05:19:18;15.70;99.90
52725;DHT22;38621;52.830;6.914;2023-07-31T05:21:43;15.70;99.90
52725;DHT22;38621;52.830;6.914;2023-07-31T05:24:10;15.70;99.90
52725;DHT22;38621;52.830;6.914;2023-07-31T05:26:35;15.70;99.90
52725;DHT22;38621;52.830;6.914;2023-07-31T05:29:01;15.80;99.90
52725;DHT22;38621;52.830;6.914;2023-07-31T05:31:27;15.80;99.90
52725;DHT22;38621;52.830;6.914;2023-07-31T05:33:53;15.80;99.90
52725;DHT22;38621;52.830;6.914;2023-07-31T05:36:19;15.90;99.90
52725;DHT22;38621;52.830;6.914;2023-07-31T05:38:45;15.90;99.90
52725;DHT22;38621;52.830;6.914;2023-07-31T05:41:12;15.90;99.90
52725;DHT22;38621;52.830;6.914;2023-07-31T05:43:37;15.90;99.90
52725;DHT22;38621;52.830;6.914;2023-07-31T05:46:03;16.00;99.90
52725;DHT22;38621;52.830;6.914;2023-07-31T05:48:29;15.90;99.90
52725;DHT22;38621;52.830;6.914;2023-07-31T05:50:54;16.00;99.90
52725;DHT22;38621;52.830;6.914;2023-07-31T05:53:20;16.00;99.90
52725;DHT22;38621;52.830;6.914;2023-07-31T05:55:46;16.10;99.90
52725;DHT22;38621;52.830;6.914;2023-07-31T05:58:11;16.00;99.90
52725;DHT22;38621;52.830;6.914;2023-07-31T06:00:37;16.10;99.90
52725;DHT22;38621;52.830;6.914;2023-07-31T06:03:03;16.10;99.90
52725;DHT22;38621;52.830;6.914;2023-07-31T06:05:28;16.10;99.90
52725;DHT22;38621;52.830;6.914;2023-07-31T06:07:55;16.20;99.90
52725;DHT22;38621;52.830;6.914;2023-07-31T06:10:21;16.20;99.90
52725;DHT22;38621;52.830;6.914;2023-07-31T06:12:47;16.20;99.90
52725;DHT22;38621;52.830;6.914;2023-07-31T06:15:12;16.20;99.90
52725;DHT22;38621;52.830;6.914;2023-07-31T06:17:38;16.20;99.90
52725;DHT22;38621;52.830;6.914;2023-07-31T06:20:05;16.20;99.90
52725;DHT22;38621;52.830;6.914;2023-07-31T06:22:31;16.20;99.90
52725;DHT22;38621;52.830;6.914;2023-07-31T06:24:57;16.20;99.90
52725;DHT22;38621;52.830;6.914;2023-07-31T06:27:23;16.30;99.90
52725;DHT22;38621;52.830;6.914;2023-07-31T06:29:49;16.30;99.90
52725;DHT22;38621;52.830;6.914;2023-07-31T06:32:14;16.30;99.90
52725;DHT22;38621;52.830;6.914;2023-07-31T06:34:40;16.30;99.90
52725;DHT22;38621;52.830;6.914;2023-07-31T06:37:06;16.30;99.90
52725;DHT22;38621;52.830;6.914;2023-07-31T06:39:31;16.30;99.90
52725;DHT22;38621;52.830;6.914;2023-07-31T06:41:57;16.30;99.90
52725;DHT22;38621;52.830;6.914;2023-07-31T06:44:23;16.40;99.90
52725;DHT22;38621;52.830;6.914;2023-07-31T06:46:49;16.40;99.90
52725;DHT22;38621;52.830;6.914;2023-07-31T06:49:14;16.30;99.90
52725;DHT22;38621;52.830;6.914;2023-07-31T06:51:43;16.30;99.90
52725;DHT22;38621;52.830;6.914;2023-07-31T06:54:09;16.30;99.90
52725;DHT22;38621;52.830;6.914;2023-07-31T06:56:35;16.30;99.90
52725;DHT22;38621;52.830;6.914;2023-07-31T06:59:01;16.30;99.90
52725;DHT22;38621;52.830;6.914;2023-07-31T07:01:26;16.30;99.90
52725;DHT22;38621;52.830;6.914;2023-07-31T07:03:54;16.30;99.90
52725;DHT22;38621;52.830;6.914;2023-07-31T07:06:19;16.30;99.90
52725;DHT22;38621;52.830;6.914;2023-07-31T07:08:45;16.30;99.90
52725;DHT22;38621;52.830;6.914;2023-07-31T07:11:11;16.20;99.90
52725;DHT22;38621;52.830;6.914;2023-07-31T07:13:36;16.20;99.90
52725;DHT22;38621;52.830;6.914;2023-07-31T07:16:02;16.20;99.90
52725;DHT22;38621;52.830;6.914;2023-07-31T07:18:28;16.20;99.90
52725;DHT22;38621;52.830;6.914;2023-07-31T07:20:54;16.20;99.90
52725;DHT22;38621;52.830;6.914;2023-07-31T07:23:20;16.10;99.90
52725;DHT22;38621;52.830;6.914;2023-07-31T07:25:47;16.20;99.90
52725;DHT22;38621;52.830;6.914;2023-07-31T07:28:13;16.20;99.90
52725;DHT22;38621;52.830;6.914;2023-07-31T07:30:39;16.20;99.90
52725;DHT22;38621;52.830;6.914;2023-07-31T07:33:05;16.20;99.90
52725;DHT22;38621;52.830;6.914;2023-07-31T07:35:33;16.20;99.90
52725;DHT22;38621;52.830;6.914;2023-07-31T07:38:00;16.20;99.90
52725;DHT22;38621;52.830;6.914;2023-07-31T07:40:26;16.20;99.90
52725;DHT22;38621;52.830;6.914;2023-07-31T07:42:52;16.30;99.90
52725;DHT22;38621;52.830;6.914;2023-07-31T07:45:17;16.30;99.90
52725;DHT22;38621;52.830;6.914;2023-07-31T07:47:43;16.40;99.90
52725;DHT22;38621;52.830;6.914;2023-07-31T07:50:09;16.40;99.90
52725;DHT22;38621;52.830;6.914;2023-07-31T07:52:35;16.40;99.90
52725;DHT22;38621;52.830;6.914;2023-07-31T07:55:00;16.40;99.90
52725;DHT22;38621;52.830;6.914;2023-07-31T07:57:26;16.40;99.90
52725;DHT22;38621;52.830;6.914;2023-07-31T07:59:52;16.40;99.90
52725;DHT22;38621;52.830;6.914;2023-07-31T08:02:18;16.40;99.90
52725;DHT22;38621;52.830;6.914;2023-07-31T08:04:44;16.40;99.90
52725;DHT22;38621;52.830;6.914;2023-07-31T08:07:12;16.40;99.90
52725;DHT22;38621;52.830;6.914;2023-07-31T08:09:38;16.40;99.90
52725;DHT22;38621;52.830;6.914;2023-07-31T08:12:05;16.40;99.90
52725;DHT22;38621;52.830;6.914;2023-07-31T08:14:31;16.50;99.90
52725;DHT22;38621;52.830;6.914;2023-07-31T08:16:57;16.50;99.90
52725;DHT22;38621;52.830;6.914;2023-07-31T08:19:23;16.40;99.90
52725;DHT22;38621;52.830;6.914;2023-07-31T08:21:48;16.50;99.90
52725;DHT22;38621;52.830;6.914;2023-07-31T08:24:14;16.50;99.90
52725;DHT22;38621;52.830;6.914;2023-07-31T08:26:40;16.50;99.90
52725;DHT22;38621;52.830;6.914;2023-07-31T08:29:06;16.50;99.90
52725;DHT22;38621;52.830;6.914;2023-07-31T08:31:31;16.50;99.90
52725;DHT22;38621;52.830;6.914;2023-07-31T08:33:57;16.50;99.90
52725;DHT22;38621;52.830;6.914;2023-07-31T08:36:23;16.50;99.90
52725;DHT22;38621;52.830;6.914;2023-07-31T08:38:49;16.50;99.90
52725;DHT22;38621;52.830;6.914;2023-07-31T08:41:16;16.50;99.90
52725;DHT22;38621;52.830;6.914;2023-07-31T08:43:45;16.50;99.90
52725;DHT22;38621;52.830;6.914;2023-07-31T08:46:12;16.50;99.90
52725;DHT22;38621;52.830;6.914;2023-07-31T08:48:41;16.50;99.90
52725;DHT22;38621;52.830;6.914;2023-07-31T08:51:07;16.50;99.90
52725;DHT22;38621;52.830;6.914;2023-07-31T08:53:33;16.50;99.90
52725;DHT22;38621;52.830;6.914;2023-07-31T08:55:59;16.60;99.90
52725;DHT22;38621;52.830;6.914;2023-07-31T08:58:28;16.60;99.90
52725;DHT22;38621;52.830;6.914;2023-07-31T09:00:56;16.70;99.90
52725;DHT22;38621;52.830;6.914;2023-07-31T09:03:23;16.80;99.90
52725;DHT22;38621;52.830;6.914;2023-07-31T09:05:50;16.80;99.90
52725;DHT22;38621;52.830;6.914;2023-07-31T09:08:19;16.90;99.90
52725;DHT22;38621;52.830;6.914;2023-07-31T09:10:46;17.00;99.90
52725;DHT22;38621;52.830;6.914;2023-07-31T09:13:15;17.00;99.90
52725;DHT22;38621;52.830;6.914;2023-07-31T09:15:44;17.00;99.90
52725;DHT22;38621;52.830;6.914;2023-07-31T09:18:10;17.10;99.90
52725;DHT22;38621;52.830;6.914;2023-07-31T09:20:36;17.20;99.90
52725;DHT22;38621;52.830;6.914;2023-07-31T09:23:11;17.20;99.90
52725;DHT22;38621;52.830;6.914;2023-07-31T09:25:38;17.30;99.90
52725;DHT22;38621;52.830;6.914;2023-07-31T09:28:09;17.30;99.90
52725;DHT22;38621;52.830;6.914;2023-07-31T09:30:53;17.20;99.90
52725;DHT22;38621;52.830;6.914;2023-07-31T09:33:19;17.30;99.90
52725;DHT22;38621;52.830;6.914;2023-07-31T09:35:45;17.30;99.90
52725;DHT22;38621;52.830;6.914;2023-07-31T09:38:14;17.30;99.90
52725;DHT22;38621;52.830;6.914;2023-07-31T09:40:42;17.30;99.90
52725;DHT22;38621;52.830;6.914;2023-07-31T09:43:12;17.30;99.90
52725;DHT22;38621;52.830;6.914;2023-07-31T09:45:40;17.30;99.90
52725;DHT22;38621;52.830;6.914;2023-07-31T09:48:14;17.30;99.90
52725;DHT22;38621;52.830;6.914;2023-07-31T09:50:47;17.30;99.90
52725;DHT22;38621;52.830;6.914;2023-07-31T09:53:13;17.20;99.90
52725;DHT22;38621;52.830;6.914;2023-07-31T09:55:40;17.20;99.90
52725;DHT22;38621;52.830;6.914;2023-07-31T09:58:08;17.30;99.90
52725;DHT22;38621;52.830;6.914;2023-07-31T10:00:35;17.30;99.90
52725;DHT22;38621;52.830;6.914;2023-07-31T10:03:08;17.40;99.90
52725;DHT22;38621;52.830;6.914;2023-07-31T10:05:49;17.40;99.90
52725;DHT22;38621;52.830;6.914;2023-07-31T10:08:16;17.50;99.90
52725;DHT22;38621;52.830;6.914;2023-07-31T10:10:44;17.50;99.90
52725;DHT22;38621;52.830;6.914;2023-07-31T10:13:12;17.50;99.90
52725;DHT22;38621;52.830;6.914;2023-07-31T10:15:38;17.50;99.90
52725;DHT22;38621;52.830;6.914;2023-07-31T10:18:06;17.50;99.90
52725;DHT22;38621;52.830;6.914;2023-07-31T10:20:32;17.50;99.90
52725;DHT22;38621;52.830;6.914;2023-07-31T10:22:59;17.50;99.90
52725;DHT22;38621;52.830;6.914;2023-07-31T10:25:27;17.50;99.90
52725;DHT22;38621;52.830;6.914;2023-07-31T10:27:53;17.50;99.90
52725;DHT22;38621;52.830;6.914;2023-07-31T10:30:22;17.50;99.90
52725;DHT22;38621;52.830;6.914;2023-07-31T10:32:51;17.50;99.90
52725;DHT22;38621;52.830;6.914;2023-07-31T10:35:18;17.60;99.90
52725;DHT22;38621;52.830;6.914;2023-07-31T10:37:44;17.60;99.90
52725;DHT22;38621;52.830;6.914;2023-07-31T10:40:17;17.70;99.90
52725;DHT22;38621;52.830;6.914;2023-07-31T10:42:54;17.80;99.90
52725;DHT22;38621;52.830;6.914;2023-07-31T10:45:42;17.90;99.90
52725;DHT22;38621;52.830;6.914;2023-07-31T10:48:14;18.00;99.90
52725;DHT22;38621;52.830;6.914;2023-07-31T10:50:58;18.00;99.90
52725;DHT22;38621;52.830;6.914;2023-07-31T10:53:29;18.10;99.90
52725;DHT22;38621;52.830;6.914;2023-07-31T10:56:06;18.20;99.90
52725;DHT22;38621;52.830;6.914;2023-07-31T10:58:33;18.20;99.90
52725;DHT22;38621;52.830;6.914;2023-07-31T11:01:04;18.20;99.90
52725;DHT22;38621;52.830;6.914;2023-07-31T11:03:49;18.10;99.90
52725;DHT22;38621;52.830;6.914;2023-07-31T11:06:18;18.10;99.90
52725;DHT22;38621;52.830;6.914;2023-07-31T11:08:48;18.10;99.90
52725;DHT22;38621;52.830;6.914;2023-07-31T11:11:16;18.10;99.90
52725;DHT22;38621;52.830;6.914;2023-07-31T11:13:48;18.10;99.90
52725;DHT22;38621;52.830;6.914;2023-07-31T11:16:24;18.20;99.90
52725;DHT22;38621;52.830;6.914;2023-07-31T11:18:51;18.40;99.90
52725;DHT22;38621;52.830;6.914;2023-07-31T11:21:23;18.80;99.90
52725;DHT22;38621;52.830;6.914;2023-07-31T11:23:56;19.00;99.90
52725;DHT22;38621;52.830;6.914;2023-07-31T11:26:23;19.00;99.90
52725;DHT22;38621;52.830;6.914;2023-07-31T11:28:50;18.90;99.90
52725;DHT22;38621;52.830;6.914;2023-07-31T11:31:17;18.80;99.90
52725;DHT22;38621;52.830;6.914;2023-07-31T11:33:43;18.70;99.90
52725;DHT22;38621;52.830;6.914;2023-07-31T11:36:19;18.60;99.90
52725;DHT22;38621;52.830;6.914;2023-07-31T11:38:45;18.50;99.90
52725;DHT22;38621;52.830;6.914;2023-07-31T11:41:14;18.50;99.90
52725;DHT22;38621;52.830;6.914;2023-07-31T11:43:40;18.40;99.90
52725;DHT22;38621;52.830;6.914;2023-07-31T11:46:06;18.40;99.90
52725;DHT22;38621;52.830;6.914;2023-07-31T11:48:36;18.30;99.90
52725;DHT22;38621;52.830;6.914;2023-07-31T11:51:06;18.30;99.90
52725;DHT22;38621;52.830;6.914;2023-07-31T11:56:08;18.30;99.90
52725;DHT22;38621;52.830;6.914;2023-07-31T11:58:37;18.30;99.90
52725;DHT22;38621;52.830;6.914;2023-07-31T12:01:04;18.30;99.90
52725;DHT22;38621;52.830;6.914;2023-07-31T12:03:31;18.30;99.90
52725;DHT22;38621;52.830;6.914;2023-07-31T12:05:57;18.40;99.90
52725;DHT22;38621;52.830;6.914;2023-07-31T12:08:24;18.50;99.90
52725;DHT22;38621;52.830;6.914;2023-07-31T12:10:51;18.70;99.90
52725;DHT22;38621;52.830;6.914;2023-07-31T12:15:46;18.80;99.90
52725;DHT22;38621;52.830;6.914;2023-07-31T12:18:19;18.90;99.90
52725;DHT22;38621;52.830;6.914;2023-07-31T12:20:46;19.10;99.90
52725;DHT22;38621;52.830;6.914;2023-07-31T12:23:20;19.30;99.90
52725;DHT22;38621;52.830;6.914;2023-07-31T12:28:45;19.30;99.90
52725;DHT22;38621;52.830;6.914;2023-07-31T12:31:12;19.30;99.90
52725;DHT22;38621;52.830;6.914;2023-07-31T12:33:39;19.10;99.90
52725;DHT22;38621;52.830;6.914;2023-07-31T12:36:13;18.80;99.90
52725;DHT22;38621;52.830;6.914;2023-07-31T12:38:40;18.50;99.90
52725;DHT22;38621;52.830;6.914;2023-07-31T12:41:06;18.40;99.90
52725;DHT22;38621;52.830;6.914;2023-07-31T12:43:33;18.40;99.90
52725;DHT22;38621;52.830;6.914;2023-07-31T12:45:59;18.30;99.90
52725;DHT22;38621;52.830;6.914;2023-07-31T12:48:25;18.30;99.90
52725;DHT22;38621;52.830;6.914;2023-07-31T12:50:51;18.20;99.90
52725;DHT22;38621;52.830;6.914;2023-07-31T12:53:16;18.20;99.90
52725;DHT22;38621;52.830;6.914;2023-07-31T12:55:42;18.10;99.90
52725;DHT22;38621;52.830;6.914;2023-07-31T12:58:08;18.20;99.90
52725;DHT22;38621;52.830;6.914;2023-07-31T13:00:33;18.00;99.90
52725;DHT22;38621;52.830;6.914;2023-07-31T13:03:00;18.00;99.90
52725;DHT22;38621;52.830;6.914;2023-07-31T13:05:29;18.00;99.90
52725;DHT22;38621;52.830;6.914;2023-07-31T13:07:55;18.10;99.90
52725;DHT22;38621;52.830;6.914;2023-07-31T13:10:22;18.40;99.90
52725;DHT22;38621;52.830;6.914;2023-07-31T13:12:48;18.60;99.90
52725;DHT22;38621;52.830;6.914;2023-07-31T13:15:14;18.90;99.90
52725;DHT22;38621;52.830;6.914;2023-07-31T13:17:40;19.10;99.90
52725;DHT22;38621;52.830;6.914;2023-07-31T13:20:06;19.20;99.90
52725;DHT22;38621;52.830;6.914;2023-07-31T13:22:32;19.30;99.90
52725;DHT22;38621;52.830;6.914;2023-07-31T13:24:58;19.40;99.90
52725;DHT22;38621;52.830;6.914;2023-07-31T13:27:23;19.40;99.90
52725;DHT22;38621;52.830;6.914;2023-07-31T13:29:50;19.40;99.90
52725;DHT22;38621;52.830;6.914;2023-07-31T13:32:17;19.30;99.90
52725;DHT22;38621;52.830;6.914;2023-07-31T13:34:44;19.10;99.90
52725;DHT22;38621;52.830;6.914;2023-07-31T13:37:09;18.80;99.90
52725;DHT22;38621;52.830;6.914;2023-07-31T13:39:35;18.60;99.90
52725;DHT22;38621;52.830;6.914;2023-07-31T13:42:03;18.50;99.90
52725;DHT22;38621;52.830;6.914;2023-07-31T13:44:29;18.50;99.90
52725;DHT22;38621;52.830;6.914;2023-07-31T13:46:54;18.50;99.90
52725;DHT22;38621;52.830;6.914;2023-07-31T13:49:20;18.50;99.90
52725;DHT22;38621;52.830;6.914;2023-07-31T13:51:46;18.60;99.90
52725;DHT22;38621;52.830;6.914;2023-07-31T13:54:11;18.80;99.90
52725;DHT22;38621;52.830;6.914;2023-07-31T13:56:38;18.90;99.90
52725;DHT22;38621;52.830;6.914;2023-07-31T13:59:04;19.00;99.90
52725;DHT22;38621;52.830;6.914;2023-07-31T14:01:30;19.10;99.90
52725;DHT22;38621;52.830;6.914;2023-07-31T14:03:55;19.20;99.90
52725;DHT22;38621;52.830;6.914;2023-07-31T14:06:21;19.30;99.90
52725;DHT22;38621;52.830;6.914;2023-07-31T14:08:47;19.40;99.90
52725;DHT22;38621;52.830;6.914;2023-07-31T14:11:12;19.40;99.90
52725;DHT22;38621;52.830;6.914;2023-07-31T14:13:38;19.30;99.90
52725;DHT22;38621;52.830;6.914;2023-07-31T14:16:04;19.30;99.90
52725;DHT22;38621;52.830;6.914;2023-07-31T14:18:29;19.20;99.90
52725;DHT22;38621;52.830;6.914;2023-07-31T14:20:55;19.30;99.90
52725;DHT22;38621;52.830;6.914;2023-07-31T14:23:21;19.30;99.90
52725;DHT22;38621;52.830;6.914;2023-07-31T14:25:47;19.20;99.90
52725;DHT22;38621;52.830;6.914;2023-07-31T14:28:13;19.20;99.90
52725;DHT22;38621;52.830;6.914;2023-07-31T14:30:39;19.30;99.90
52725;DHT22;38621;52.830;6.914;2023-07-31T14:33:04;19.20;99.90
52725;DHT22;38621;52.830;6.914;2023-07-31T14:35:30;19.20;99.90
52725;DHT22;38621;52.830;6.914;2023-07-31T14:37:56;19.30;99.90
52725;DHT22;38621;52.830;6.914;2023-07-31T14:40:21;19.30;99.90
52725;DHT22;38621;52.830;6.914;2023-07-31T14:42:47;19.30;99.90
52725;DHT22;38621;52.830;6.914;2023-07-31T14:45:13;19.40;99.90
52725;DHT22;38621;52.830;6.914;2023-07-31T14:47:38;19.50;99.90
52725;DHT22;38621;52.830;6.914;2023-07-31T14:50:05;19.60;99.90
52725;DHT22;38621;52.830;6.914;2023-07-31T14:52:30;19.60;99.90
52725;DHT22;38621;52.830;6.914;2023-07-31T14:54:56;19.60;99.90
52725;DHT22;38621;52.830;6.914;2023-07-31T14:57:22;19.50;99.90
52725;DHT22;38621;52.830;6.914;2023-07-31T14:59:48;19.60;99.90
52725;DHT22;38621;52.830;6.914;2023-07-31T15:02:14;19.60;99.90
52725;DHT22;38621;52.830;6.914;2023-07-31T15:04:40;19.60;99.90
52725;DHT22;38621;52.830;6.914;2023-07-31T15:07:06;19.50;99.90
52725;DHT22;38621;52.830;6.914;2023-07-31T15:09:31;19.50;99.90
52725;DHT22;38621;52.830;6.914;2023-07-31T15:11:57;19.50;99.90
52725;DHT22;38621;52.830;6.914;2023-07-31T15:14:24;19.40;99.90
52725;DHT22;38621;52.830;6.914;2023-07-31T15:16:50;19.40;99.90
52725;DHT22;38621;52.830;6.914;2023-07-31T15:19:16;19.40;99.90
52725;DHT22;38621;52.830;6.914;2023-07-31T15:21:41;19.40;99.90
52725;DHT22;38621;52.830;6.914;2023-07-31T15:24:07;19.30;99.90
52725;DHT22;38621;52.830;6.914;2023-07-31T15:26:33;19.30;99.90
52725;DHT22;38621;52.830;6.914;2023-07-31T15:29:04;19.30;99.90
52725;DHT22;38621;52.830;6.914;2023-07-31T15:31:45;19.20;99.90
52725;DHT22;38621;52.830;6.914;2023-07-31T15:34:12;19.20;99.90
52725;DHT22;38621;52.830;6.914;2023-07-31T15:36:38;19.20;99.90
52725;DHT22;38621;52.830;6.914;2023-07-31T15:39:03;19.10;99.90